YAG weather

Public forecast

Using degrees Celsius for public forecast. Weather courtesy of forecast.io.

Closest aviation weather report (METAR) to Fort Frances Municipal Airport

Closest report is Falls International Airport, 5.5 nm (10.1 km) SSE. Retrieved 2020/08/10 02:12 UTC (0 seconds ago):

KINL 100212Z AUTO 24005KT 10SM BKN026 17/16 A2977

Closest aviation forecast (TAF) to Fort Frances Municipal Airport

Closest forecast is Falls International Airport, 5.5 nm (10.1 km) SSE. Retrieved 2020-08-10 00:30 UTC (2 hours ago):

TAF KINL 092328Z 1000/1024 27005KT 6SM -SHRA VCTS BKN024CB TEMPO 1000/1001 3SM -TSRA BKN020CB FM100200 23006KT P6SM BKN025 FM100400 25006KT P6SM SCT025 FM101700 26014G24KT P6SM FEW060